Ferry Katsuragi — JI3611 — position and weather

sailwx.info

Track history (hours):
 
Tides and Currents Weather Stations Pressure Air Temp Water Temp Dewpoint Dewpoint Depression Visibility Wind Speed Wind Dir Waves Ship Positions

Ferry Katsuragi

Last reported at 2017-Oct-22 06:26 UTC. Time now 2017-Oct-22 06:50 UTC.
Position N 34°26' E 135°17'.

Length 108 m; draft 4 m.

Type: Passenger vessel. MMSI: 431301245.

Date/timePositionNaut miles runAvg speedWind from/ knotsBaromVisibWave heightAir tempDewpointWater temp
2017-Oct-22 06:26N 34°26' E 135°17'0 0.0
2017-Oct-22 05:44N 34°26' E 135°17'0 0.0
2017-Oct-22 05:26N 34°26' E 135°17'0 0.0
2017-Oct-22 01:20N 34°26' E 135°17'2 4.7
2017-Oct-22 01:00N 34°28' E 135°17'612.3
2017-Oct-22 00:30N 34°27' E 135°10'1414.3
2017-Oct-21 23:33N 34°16' E 134°59'116.7
2017-Oct-21 23:29N 34°15' E 134°59'715.1
2017-Oct-21 23:01N 34°13' E 135°08'2 4.6
2017-Oct-21 22:31N 34°13' E 135°05'714.5
2017-Oct-21 22:00N 34°09' E 134°57'15 6.2
2017-Oct-21 19:30N 34°03' E 134°40'813.9
2017-Oct-21 18:56N 34°05' E 134°49'614.1
2017-Oct-21 18:29N 34°08' E 134°56'714.9
2017-Oct-21 18:01N 34°11' E 135°04'4 8.8
2017-Oct-21 17:30N 34°13' E 135°09'0 0.0
2017-Oct-21 17:00N 34°13' E 135°09'0 0.0
2017-Oct-21 16:31N 34°13' E 135°09'0 0.0
2017-Oct-21 16:01N 34°13' E 135°09'0 0.0
2017-Oct-21 15:30N 34°13' E 135°09'0 0.2
2017-Oct-21 15:01N 34°13' E 135°08'713.9
2017-Oct-21 14:29N 34°10' E 135°01'4 1.1
2017-Oct-21 11:02N 34°08' E 134°57'115.6
2017-Oct-21 10:59N 34°08' E 134°58'715.3
2017-Oct-21 10:30N 34°12' E 135°05'3 6.3
2017-Oct-21 10:00N 34°13' E 135°09'0 0.1
2017-Oct-21 09:31N 34°13' E 135°09'714.1
2017-Oct-21 09:00N 34°10' E 135°01'6 1.6
2017-Oct-21 05:34N 34°07' E 134°55'214.4
2017-Oct-21 05:27N 34°08' E 134°57'715.0
2017-Oct-21 05:00N 34°11' E 135°04'4 8.8
2017-Oct-21 04:30N 34°13' E 135°09'0 0.3
2017-Oct-21 04:00N 34°13' E 135°08'714.2
2017-Oct-21 03:31N 34°10' E 135°01'5 1.7
2017-Oct-21 00:21N 34°09' E 134°54'515.3
2017-Oct-21 00:00N 34°11' E 135°01'714.2
2017-Oct-20 23:30N 34°13' E 135°09'0 0.0
2017-Oct-20 23:00N 34°13' E 135°09'3 5.4
2017-Oct-20 22:30N 34°13' E 135°05'714.7
2017-Oct-20 22:00N 34°10' E 134°57'10 3.5
2017-Oct-20 19:10N 34°06' E 134°46'413.2
2017-Oct-20 18:54N 34°07' E 134°50'613.6
2017-Oct-20 18:28N 34°09' E 134°57'613.7
2017-Oct-20 18:00N 34°12' E 135°04'4 8.5
2017-Oct-20 17:30N 34°13' E 135°09'0 0.0
2017-Oct-20 17:00N 34°13' E 135°09'0 0.0
2017-Oct-20 16:30N 34°13' E 135°09'0 0.0
2017-Oct-20 16:00N 34°13' E 135°09'0 0.0
2017-Oct-20 15:30N 34°13' E 135°09'1 1.1
2017-Oct-20 15:00N 34°13' E 135°08'713.5
2017-Oct-20 14:29N 34°10' E 135°00'4 1.1
2017-Oct-20 11:03N 34°10' E 134°56'115.6
2017-Oct-20 10:58N 34°10' E 134°57'715.6
2017-Oct-20 10:31N 34°12' E 135°05'3 5.3
2017-Oct-20 10:00N 34°13' E 135°09'0 0.8
2017-Oct-20 09:30N 34°13' E 135°08'815.4
2017-Oct-20 09:00N 34°10' E 134°59'2 0.4
2017-Oct-20 05:23N 34°10' E 134°58'514.3
2017-Oct-20 05:00N 34°12' E 135°04'4 8.2
2017-Oct-20 04:30N 34°13' E 135°09'0 0.1
2017-Oct-20 04:01N 34°13' E 135°09'815.0
2017-Oct-20 03:29N 34°11' E 134°59'4 1.4
2017-Oct-20 00:20N 34°09' E 134°55'615.4
2017-Oct-19 23:57N 34°11' E 135°01'614.3
2017-Oct-19 23:30N 34°13' E 135°09'0 0.1
2017-Oct-19 23:00N 34°13' E 135°09'3 6.0
2017-Oct-19 22:30N 34°13' E 135°05'4 1.1
2017-Oct-19 18:14N 34°12' E 134°60'313.2
2017-Oct-19 18:00N 34°12' E 135°03'5 9.0
2017-Oct-19 17:30N 34°13' E 135°09'0 0.0
2017-Oct-19 17:00N 34°13' E 135°09'0 0.0
2017-Oct-19 16:30N 34°13' E 135°09'0 0.0
2017-Oct-19 16:00N 34°13' E 135°09'0 0.0
2017-Oct-19 15:30N 34°13' E 135°09'0 0.0
2017-Oct-19 15:00N 34°13' E 135°09'611.7
2017-Oct-19 14:30N 34°10' E 135°02'5 1.6
2017-Oct-19 11:01N 34°10' E 134°56'015.6
2017-Oct-19 11:00N 34°10' E 134°56'714.9
2017-Oct-19 10:30N 34°12' E 135°05'3 6.9
2017-Oct-19 10:01N 34°13' E 135°09'1 1.7
2017-Oct-19 09:30N 34°13' E 135°08'714.8
2017-Oct-19 09:00N 34°11' E 134°59'1 0.4
2017-Oct-19 05:21N 34°10' E 134°58'513.9
2017-Oct-19 05:00N 34°12' E 135°03'4 9.0
2017-Oct-19 04:30N 34°13' E 135°09'0 0.4
2017-Oct-19 04:00N 34°13' E 135°08'915.2
2017-Oct-19 03:25N 34°09' E 134°59'2 0.6
2017-Oct-19 00:10N 34°10' E 134°57'215.1
2017-Oct-19 00:00N 34°11' E 134°60'714.8
2017-Oct-18 23:30N 34°13' E 135°09'0 0.0
2017-Oct-18 23:00N 34°13' E 135°09'3 5.3
2017-Oct-18 22:30N 34°13' E 135°05'17 5.1
2017-Oct-18 19:05N 34°06' E 134°46'414.6
2017-Oct-18 18:49N 34°07' E 134°50'514.8
2017-Oct-18 18:30N 34°09' E 134°56'714.9
2017-Oct-18 18:00N 34°12' E 135°04'4 8.1
2017-Oct-18 17:31N 34°13' E 135°09'0 0.0
2017-Oct-18 17:00N 34°13' E 135°09'0 0.0
2017-Oct-18 16:31N 34°13' E 135°09'0 0.0
2017-Oct-18 16:01N 34°13' E 135°09'0 0.0
2017-Oct-18 15:30N 34°13' E 135°09'0 0.0
2017-Oct-18 15:01N 34°13' E 135°09'8 1.9
2017-Oct-18 10:48N 34°12' E 134°59'415.0
2017-Oct-18 10:31N 34°12' E 135°05'3 6.7
2017-Oct-18 10:00N 34°13' E 135°09'0 0.1
2017-Oct-18 09:30N 34°13' E 135°09'814.4
2017-Oct-18 08:58N 34°11' E 134°60'4 1.2
2017-Oct-18 05:31N 34°09' E 134°55'214.8
2017-Oct-18 05:23N 34°10' E 134°58'514.3
2017-Oct-18 05:01N 34°12' E 135°04'4 8.7
2017-Oct-18 04:30N 34°13' E 135°09'0 0.1
2017-Oct-18 04:00N 34°13' E 135°09'815.1
2017-Oct-18 03:30N 34°12' E 134°60'3 1.1
2017-Oct-18 00:16N 34°08' E 134°58'415.1
2017-Oct-18 00:01N 34°11' E 135°01'612.8
2017-Oct-17 23:30N 34°13' E 135°09'0 0.0
2017-Oct-17 23:00N 34°13' E 135°09'3 5.1
2017-Oct-17 22:30N 34°13' E 135°05'814.5
2017-Oct-17 21:59N 34°10' E 134°57'0 0.1
2017-Oct-17 18:27N 34°10' E 134°57'613.6
2017-Oct-17 18:01N 34°12' E 135°04'4 8.6
2017-Oct-17 17:30N 34°13' E 135°09'0 0.0
2017-Oct-17 17:01N 34°13' E 135°09'0 0.0
2017-Oct-17 16:31N 34°13' E 135°09'0 0.0
2017-Oct-17 16:01N 34°13' E 135°09'0 0.0
2017-Oct-17 15:31N 34°13' E 135°09'0 0.6
2017-Oct-17 15:01N 34°13' E 135°08'714.2
2017-Oct-17 14:29N 34°10' E 134°60'1 0.4
2017-Oct-17 10:51N 34°11' E 134°59'514.6
2017-Oct-17 10:30N 34°12' E 135°05'3 6.6
2017-Oct-17 10:00N 34°13' E 135°09'0 0.5
2017-Oct-17 09:31N 34°13' E 135°08'815.1
2017-Oct-17 09:00N 34°10' E 134°59'3 0.8
2017-Oct-17 05:28N 34°09' E 134°56'714.3
2017-Oct-17 05:00N 34°12' E 135°04'4 8.7
2017-Oct-17 04:30N 34°13' E 135°09'0 0.1
2017-Oct-17 04:00N 34°13' E 135°09'714.3
2017-Oct-17 03:31N 34°10' E 135°01'4 1.3
2017-Oct-17 00:17N 34°09' E 134°56'415.8
2017-Oct-17 00:01N 34°11' E 135°01'713.8
2017-Oct-16 23:30N 34°13' E 135°09'0 0.0
2017-Oct-16 23:00N 34°13' E 135°09'3 6.3
2017-Oct-16 22:30N 34°12' E 135°05'8 2.1
2017-Oct-16 18:31N 34°09' E 134°56'013.7
2017-Oct-16 18:30N 34°09' E 134°56'713.8
2017-Oct-16 18:01N 34°12' E 135°04'4 8.6
2017-Oct-16 17:31N 34°13' E 135°09'0 0.0
2017-Oct-16 17:01N 34°13' E 135°09'0 0.0
2017-Oct-16 16:31N 34°13' E 135°09'0 0.0
2017-Oct-16 16:00N 34°13' E 135°09'0 0.0
2017-Oct-16 15:31N 34°13' E 135°09'1 1.1
2017-Oct-16 15:01N 34°13' E 135°08'713.5
2017-Oct-16 14:30N 34°11' E 135°00'4 1.2
2017-Oct-16 11:03N 34°09' E 134°56'214.3
2017-Oct-16 10:56N 34°10' E 134°58'614.4
2017-Oct-16 10:30N 34°12' E 135°05'3 6.9
2017-Oct-16 10:00N 34°13' E 135°09'1 2.0
2017-Oct-16 09:30N 34°13' E 135°07'714.5
2017-Oct-16 09:00N 34°10' E 134°59'3 0.8
2017-Oct-16 05:29N 34°09' E 134°56'714.0
2017-Oct-16 05:00N 34°12' E 135°03'5 9.1
2017-Oct-16 04:30N 34°13' E 135°09'0 0.0
2017-Oct-16 04:01N 34°13' E 135°09'713.8
2017-Oct-16 03:30N 34°10' E 135°01'2 0.7
2017-Oct-16 00:08N 34°10' E 134°58'216.3
2017-Oct-16 00:00N 34°11' E 135°00'714.9
2017-Oct-15 23:30N 34°13' E 135°09'0 0.0
2017-Oct-15 23:00N 34°13' E 135°09'3 5.1
2017-Oct-15 22:31N 34°12' E 135°06'13 3.5
2017-Oct-15 18:47N 34°08' E 134°51'514.5
2017-Oct-15 18:26N 34°10' E 134°56'614.1
2017-Oct-15 18:00N 34°12' E 135°04'4 8.7
2017-Oct-15 17:30N 34°13' E 135°09'0 0.0
2017-Oct-15 17:00N 34°13' E 135°09'0 0.0
2017-Oct-15 16:30N 34°13' E 135°09'0 0.0
2017-Oct-15 16:00N 34°13' E 135°09'0 0.0
2017-Oct-15 15:30N 34°13' E 135°09'0 0.1
2017-Oct-15 15:00N 34°13' E 135°09'10 2.5
2017-Oct-15 10:58N 34°10' E 134°57'715.1
2017-Oct-15 10:30N 34°12' E 135°05'3 6.9
2017-Oct-15 10:00N 34°13' E 135°09'0 0.0
2017-Oct-15 09:30N 34°13' E 135°09'612.3
2017-Oct-15 09:00N 34°11' E 135°02'6 1.7
2017-Oct-15 05:32N 34°09' E 134°55'115.8
2017-Oct-15 05:29N 34°09' E 134°56'714.8
2017-Oct-15 05:00N 34°12' E 135°04'4 8.4
2017-Oct-15 04:30N 34°13' E 135°09'0 0.1
2017-Oct-15 04:00N 34°13' E 135°09'714.2
2017-Oct-15 03:30N 34°11' E 135°00'3 0.9
2017-Oct-15 00:11N 34°09' E 134°57'315.5
2017-Oct-15 00:00N 34°11' E 135°00'714.7
2017-Oct-14 23:31N 34°13' E 135°09'0 0.1
2017-Oct-14 23:01N 34°13' E 135°09'4 8.3
2017-Oct-14 22:30N 34°12' E 135°04'8 2.0
2017-Oct-14 18:34N 34°09' E 134°55'213.7
2017-Oct-14 18:27N 34°10' E 134°57'613.3
2017-Oct-14 18:00N 34°12' E 135°03'4 8.8
2017-Oct-14 17:30N 34°13' E 135°09'0 0.0
2017-Oct-14 17:00N 34°13' E 135°09'0 0.0
2017-Oct-14 16:30N 34°13' E 135°09'0 0.0
2017-Oct-14 16:01N 34°13' E 135°09'0 0.0
2017-Oct-14 15:30N 34°13' E 135°09'1 1.5
2017-Oct-14 15:00N 34°13' E 135°08'713.3
2017-Oct-14 14:29N 34°11' E 134°60'3 0.7
2017-Oct-14 10:57N 34°10' E 134°57'714.9
2017-Oct-14 10:31N 34°12' E 135°04'4 7.1
2017-Oct-14 10:00N 34°13' E 135°09'0 0.0
2017-Oct-14 09:31N 34°13' E 135°09'714.0
2017-Oct-14 09:00N 34°11' E 135°01'3 0.8
2017-Oct-14 05:22N 34°10' E 134°57'514.5
2017-Oct-14 05:00N 34°12' E 135°03'5 9.2
2017-Oct-14 04:30N 34°13' E 135°09'0 0.1
2017-Oct-14 04:01N 34°13' E 135°09'714.7
2017-Oct-14 03:30N 34°11' E 134°60'4 1.4
2017-Oct-14 00:17N 34°09' E 134°55'516.5
2017-Oct-14 00:00N 34°11' E 135°00'714.7
2017-Oct-13 23:30N 34°13' E 135°09'0 0.0
2017-Oct-13 23:00N 34°13' E 135°09'3 5.7
2017-Oct-13 22:30N 34°12' E 135°05'9 2.3
2017-Oct-13 18:33N 34°09' E 134°55'114.4
2017-Oct-13 18:30N 34°09' E 134°56'713.6
2017-Oct-13 18:00N 34°12' E 135°04'4 8.6
2017-Oct-13 17:30N 34°13' E 135°09'0 0.0
2017-Oct-13 17:00N 34°13' E 135°09'0 0.0
2017-Oct-13 16:30N 34°13' E 135°09'0 0.0
2017-Oct-13 16:00N 34°13' E 135°09'0 0.0
2017-Oct-13 15:31N 34°13' E 135°09'0 0.6
2017-Oct-13 15:00N 34°13' E 135°08'713.9
2017-Oct-13 14:30N 34°11' E 135°00'2 0.6
2017-Oct-13 10:55N 34°11' E 134°58'614.7
2017-Oct-13 10:30N 34°12' E 135°05'3 6.5
2017-Oct-13 10:01N 34°13' E 135°09'0 0.6
2017-Oct-13 09:31N 34°13' E 135°08'914.8
2017-Oct-13 08:54N 34°10' E 134°58'1 0.3
2017-Oct-13 05:28N 34°09' E 134°57'614.1
2017-Oct-13 05:01N 34°11' E 135°04'4 8.1
2017-Oct-13 04:30N 34°13' E 135°09'0 0.0
2017-Oct-13 04:01N 34°13' E 135°09'713.6
2017-Oct-13 03:30N 34°11' E 135°01'5 1.4
2017-Oct-13 00:16N 34°09' E 134°56'416.3
2017-Oct-13 00:01N 34°11' E 135°00'714.5
2017-Oct-12 23:30N 34°13' E 135°09'0 0.0
2017-Oct-12 23:00N 34°13' E 135°09'3 5.5
2017-Oct-12 22:31N 34°12' E 135°05'815.0
2017-Oct-12 22:00N 34°09' E 134°57'2 0.6
2017-Oct-12 18:34N 34°09' E 134°55'114.5
2017-Oct-12 18:28N 34°09' E 134°56'714.2
2017-Oct-12 18:00N 34°12' E 135°03'4 8.9
2017-Oct-12 17:30N 34°13' E 135°09'0 0.0
2017-Oct-12 17:00N 34°13' E 135°09'0 0.0
2017-Oct-12 16:30N 34°13' E 135°09'0 0.0
2017-Oct-12 16:00N 34°13' E 135°09'0 0.0
2017-Oct-12 15:30N 34°13' E 135°09'0 0.1
2017-Oct-12 15:01N 34°13' E 135°09'612.4
2017-Oct-12 14:30N 34°11' E 135°02'3 0.8
2017-Oct-12 10:54N 34°11' E 134°58'614.7
2017-Oct-12 10:31N 34°12' E 135°05'3 6.4
2017-Oct-12 10:00N 34°13' E 135°09'0 0.1
2017-Oct-12 09:31N 34°13' E 135°09'714.0
2017-Oct-12 09:00N 34°11' E 135°01'  
Track history (hours):
 
Tides and Currents Weather Stations Pressure Air Temp Water Temp Dewpoint Dewpoint Depression Visibility Wind Speed Wind Dir Waves Ship Positions

Ferry Katsuragi

Last reported at 2017-Oct-22 06:26 UTC. Time now 2017-Oct-22 06:50 UTC.
Position N 34°26' E 135°17'.

Length 108 m; draft 4 m.

Type: Passenger vessel. MMSI: 431301245.

Date/timePositionNaut miles runAvg speedWind from/ knotsBaromVisibWave heightAir tempDewpointWater temp
2017-Oct-22 06:26N 34°26' E 135°17'0 0.0
2017-Oct-22 05:44N 34°26' E 135°17'0 0.0
2017-Oct-22 05:26N 34°26' E 135°17'0 0.0
2017-Oct-22 01:20N 34°26' E 135°17'2 4.7
2017-Oct-22 01:00N 34°28' E 135°17'612.3
2017-Oct-22 00:30N 34°27' E 135°10'1414.3
2017-Oct-21 23:33N 34°16' E 134°59'116.7
2017-Oct-21 23:29N 34°15' E 134°59'715.1
2017-Oct-21 23:01N 34°13' E 135°08'2 4.6
2017-Oct-21 22:31N 34°13' E 135°05'714.5
2017-Oct-21 22:00N 34°09' E 134°57'15 6.2
2017-Oct-21 19:30N 34°03' E 134°40'813.9
2017-Oct-21 18:56N 34°05' E 134°49'614.1
2017-Oct-21 18:29N 34°08' E 134°56'714.9
2017-Oct-21 18:01N 34°11' E 135°04'4 8.8
2017-Oct-21 17:30N 34°13' E 135°09'0 0.0
2017-Oct-21 17:00N 34°13' E 135°09'0 0.0
2017-Oct-21 16:31N 34°13' E 135°09'0 0.0
2017-Oct-21 16:01N 34°13' E 135°09'0 0.0
2017-Oct-21 15:30N 34°13' E 135°09'0 0.2
2017-Oct-21 15:01N 34°13' E 135°08'713.9
2017-Oct-21 14:29N 34°10' E 135°01'4 1.1
2017-Oct-21 11:02N 34°08' E 134°57'115.6
2017-Oct-21 10:59N 34°08' E 134°58'715.3
2017-Oct-21 10:30N 34°12' E 135°05'3 6.3
2017-Oct-21 10:00N 34°13' E 135°09'0 0.1
2017-Oct-21 09:31N 34°13' E 135°09'714.1
2017-Oct-21 09:00N 34°10' E 135°01'6 1.6
2017-Oct-21 05:34N 34°07' E 134°55'214.4
2017-Oct-21 05:27N 34°08' E 134°57'715.0
2017-Oct-21 05:00N 34°11' E 135°04'4 8.8
2017-Oct-21 04:30N 34°13' E 135°09'0 0.3
2017-Oct-21 04:00N 34°13' E 135°08'714.2
2017-Oct-21 03:31N 34°10' E 135°01'5 1.7
2017-Oct-21 00:21N 34°09' E 134°54'515.3
2017-Oct-21 00:00N 34°11' E 135°01'714.2
2017-Oct-20 23:30N 34°13' E 135°09'0 0.0
2017-Oct-20 23:00N 34°13' E 135°09'3 5.4
2017-Oct-20 22:30N 34°13' E 135°05'714.7
2017-Oct-20 22:00N 34°10' E 134°57'10 3.5
2017-Oct-20 19:10N 34°06' E 134°46'413.2
2017-Oct-20 18:54N 34°07' E 134°50'613.6
2017-Oct-20 18:28N 34°09' E 134°57'613.7
2017-Oct-20 18:00N 34°12' E 135°04'4 8.5
2017-Oct-20 17:30N 34°13' E 135°09'0 0.0
2017-Oct-20 17:00N 34°13' E 135°09'0 0.0
2017-Oct-20 16:30N 34°13' E 135°09'0 0.0
2017-Oct-20 16:00N 34°13' E 135°09'0 0.0
2017-Oct-20 15:30N 34°13' E 135°09'1 1.1
2017-Oct-20 15:00N 34°13' E 135°08'713.5
2017-Oct-20 14:29N 34°10' E 135°00'4 1.1
2017-Oct-20 11:03N 34°10' E 134°56'115.6
2017-Oct-20 10:58N 34°10' E 134°57'715.6
2017-Oct-20 10:31N 34°12' E 135°05'3 5.3
2017-Oct-20 10:00N 34°13' E 135°09'0 0.8
2017-Oct-20 09:30N 34°13' E 135°08'815.4
2017-Oct-20 09:00N 34°10' E 134°59'2 0.4
2017-Oct-20 05:23N 34°10' E 134°58'514.3
2017-Oct-20 05:00N 34°12' E 135°04'4 8.2
2017-Oct-20 04:30N 34°13' E 135°09'0 0.1
2017-Oct-20 04:01N 34°13' E 135°09'815.0
2017-Oct-20 03:29N 34°11' E 134°59'4 1.4
2017-Oct-20 00:20N 34°09' E 134°55'615.4
2017-Oct-19 23:57N 34°11' E 135°01'614.3
2017-Oct-19 23:30N 34°13' E 135°09'0 0.1
2017-Oct-19 23:00N 34°13' E 135°09'3 6.0
2017-Oct-19 22:30N 34°13' E 135°05'4 1.1
2017-Oct-19 18:14N 34°12' E 134°60'313.2
2017-Oct-19 18:00N 34°12' E 135°03'5 9.0
2017-Oct-19 17:30N 34°13' E 135°09'0 0.0
2017-Oct-19 17:00N 34°13' E 135°09'0 0.0
2017-Oct-19 16:30N 34°13' E 135°09'0 0.0
2017-Oct-19 16:00N 34°13' E 135°09'0 0.0
2017-Oct-19 15:30N 34°13' E 135°09'0 0.0
2017-Oct-19 15:00N 34°13' E 135°09'611.7
2017-Oct-19 14:30N 34°10' E 135°02'5 1.6
2017-Oct-19 11:01N 34°10' E 134°56'015.6
2017-Oct-19 11:00N 34°10' E 134°56'714.9
2017-Oct-19 10:30N 34°12' E 135°05'3 6.9
2017-Oct-19 10:01N 34°13' E 135°09'1 1.7
2017-Oct-19 09:30N 34°13' E 135°08'714.8
2017-Oct-19 09:00N 34°11' E 134°59'1 0.4
2017-Oct-19 05:21N 34°10' E 134°58'513.9
2017-Oct-19 05:00N 34°12' E 135°03'4 9.0
2017-Oct-19 04:30N 34°13' E 135°09'0 0.4
2017-Oct-19 04:00N 34°13' E 135°08'915.2
2017-Oct-19 03:25N 34°09' E 134°59'2 0.6
2017-Oct-19 00:10N 34°10' E 134°57'215.1
2017-Oct-19 00:00N 34°11' E 134°60'714.8
2017-Oct-18 23:30N 34°13' E 135°09'0 0.0
2017-Oct-18 23:00N 34°13' E 135°09'3 5.3
2017-Oct-18 22:30N 34°13' E 135°05'17 5.1
2017-Oct-18 19:05N 34°06' E 134°46'414.6
2017-Oct-18 18:49N 34°07' E 134°50'514.8
2017-Oct-18 18:30N 34°09' E 134°56'714.9
2017-Oct-18 18:00N 34°12' E 135°04'4 8.1
2017-Oct-18 17:31N 34°13' E 135°09'0 0.0
2017-Oct-18 17:00N 34°13' E 135°09'0 0.0
2017-Oct-18 16:31N 34°13' E 135°09'0 0.0
2017-Oct-18 16:01N 34°13' E 135°09'0 0.0
2017-Oct-18 15:30N 34°13' E 135°09'0 0.0
2017-Oct-18 15:01N 34°13' E 135°09'8 1.9
2017-Oct-18 10:48N 34°12' E 134°59'415.0
2017-Oct-18 10:31N 34°12' E 135°05'3 6.7
2017-Oct-18 10:00N 34°13' E 135°09'0 0.1
2017-Oct-18 09:30N 34°13' E 135°09'814.4
2017-Oct-18 08:58N 34°11' E 134°60'4 1.2
2017-Oct-18 05:31N 34°09' E 134°55'214.8
2017-Oct-18 05:23N 34°10' E 134°58'514.3
2017-Oct-18 05:01N 34°12' E 135°04'4 8.7
2017-Oct-18 04:30N 34°13' E 135°09'0 0.1
2017-Oct-18 04:00N 34°13' E 135°09'815.1
2017-Oct-18 03:30N 34°12' E 134°60'3 1.1
2017-Oct-18 00:16N 34°08' E 134°58'415.1
2017-Oct-18 00:01N 34°11' E 135°01'612.8
2017-Oct-17 23:30N 34°13' E 135°09'0 0.0
2017-Oct-17 23:00N 34°13' E 135°09'3 5.1
2017-Oct-17 22:30N 34°13' E 135°05'814.5
2017-Oct-17 21:59N 34°10' E 134°57'0 0.1
2017-Oct-17 18:27N 34°10' E 134°57'613.6
2017-Oct-17 18:01N 34°12' E 135°04'4 8.6
2017-Oct-17 17:30N 34°13' E 135°09'0 0.0
2017-Oct-17 17:01N 34°13' E 135°09'0 0.0
2017-Oct-17 16:31N 34°13' E 135°09'0 0.0
2017-Oct-17 16:01N 34°13' E 135°09'0 0.0
2017-Oct-17 15:31N 34°13' E 135°09'0 0.6
2017-Oct-17 15:01N 34°13' E 135°08'714.2
2017-Oct-17 14:29N 34°10' E 134°60'1 0.4
2017-Oct-17 10:51N 34°11' E 134°59'514.6
2017-Oct-17 10:30N 34°12' E 135°05'3 6.6
2017-Oct-17 10:00N 34°13' E 135°09'0 0.5
2017-Oct-17 09:31N 34°13' E 135°08'815.1
2017-Oct-17 09:00N 34°10' E 134°59'3 0.8
2017-Oct-17 05:28N 34°09' E 134°56'714.3
2017-Oct-17 05:00N 34°12' E 135°04'4 8.7
2017-Oct-17 04:30N 34°13' E 135°09'0 0.1
2017-Oct-17 04:00N 34°13' E 135°09'714.3
2017-Oct-17 03:31N 34°10' E 135°01'4 1.3
2017-Oct-17 00:17N 34°09' E 134°56'415.8
2017-Oct-17 00:01N 34°11' E 135°01'713.8
2017-Oct-16 23:30N 34°13' E 135°09'0 0.0
2017-Oct-16 23:00N 34°13' E 135°09'3 6.3
2017-Oct-16 22:30N 34°12' E 135°05'8 2.1
2017-Oct-16 18:31N 34°09' E 134°56'013.7
2017-Oct-16 18:30N 34°09' E 134°56'713.8
2017-Oct-16 18:01N 34°12' E 135°04'4 8.6
2017-Oct-16 17:31N 34°13' E 135°09'0 0.0
2017-Oct-16 17:01N 34°13' E 135°09'0 0.0
2017-Oct-16 16:31N 34°13' E 135°09'0 0.0
2017-Oct-16 16:00N 34°13' E 135°09'0 0.0
2017-Oct-16 15:31N 34°13' E 135°09'1 1.1
2017-Oct-16 15:01N 34°13' E 135°08'713.5
2017-Oct-16 14:30N 34°11' E 135°00'4 1.2
2017-Oct-16 11:03N 34°09' E 134°56'214.3
2017-Oct-16 10:56N 34°10' E 134°58'614.4
2017-Oct-16 10:30N 34°12' E 135°05'3 6.9
2017-Oct-16 10:00N 34°13' E 135°09'1 2.0
2017-Oct-16 09:30N 34°13' E 135°07'714.5
2017-Oct-16 09:00N 34°10' E 134°59'3 0.8
2017-Oct-16 05:29N 34°09' E 134°56'714.0
2017-Oct-16 05:00N 34°12' E 135°03'5 9.1
2017-Oct-16 04:30N 34°13' E 135°09'0 0.0
2017-Oct-16 04:01N 34°13' E 135°09'713.8
2017-Oct-16 03:30N 34°10' E 135°01'2 0.7
2017-Oct-16 00:08N 34°10' E 134°58'216.3
2017-Oct-16 00:00N 34°11' E 135°00'714.9
2017-Oct-15 23:30N 34°13' E 135°09'0 0.0
2017-Oct-15 23:00N 34°13' E 135°09'3 5.1
2017-Oct-15 22:31N 34°12' E 135°06'13 3.5
2017-Oct-15 18:47N 34°08' E 134°51'514.5
2017-Oct-15 18:26N 34°10' E 134°56'614.1
2017-Oct-15 18:00N 34°12' E 135°04'4 8.7
2017-Oct-15 17:30N 34°13' E 135°09'0 0.0
2017-Oct-15 17:00N 34°13' E 135°09'0 0.0
2017-Oct-15 16:30N 34°13' E 135°09'0 0.0
2017-Oct-15 16:00N 34°13' E 135°09'0 0.0
2017-Oct-15 15:30N 34°13' E 135°09'0 0.1
2017-Oct-15 15:00N 34°13' E 135°09'10 2.5
2017-Oct-15 10:58N 34°10' E 134°57'715.1
2017-Oct-15 10:30N 34°12' E 135°05'3 6.9
2017-Oct-15 10:00N 34°13' E 135°09'0 0.0
2017-Oct-15 09:30N 34°13' E 135°09'612.3
2017-Oct-15 09:00N 34°11' E 135°02'6 1.7
2017-Oct-15 05:32N 34°09' E 134°55'115.8
2017-Oct-15 05:29N 34°09' E 134°56'714.8
2017-Oct-15 05:00N 34°12' E 135°04'4 8.4
2017-Oct-15 04:30N 34°13' E 135°09'0 0.1
2017-Oct-15 04:00N 34°13' E 135°09'714.2
2017-Oct-15 03:30N 34°11' E 135°00'3 0.9
2017-Oct-15 00:11N 34°09' E 134°57'315.5
2017-Oct-15 00:00N 34°11' E 135°00'714.7
2017-Oct-14 23:31N 34°13' E 135°09'0 0.1
2017-Oct-14 23:01N 34°13' E 135°09'4 8.3
2017-Oct-14 22:30N 34°12' E 135°04'8 2.0
2017-Oct-14 18:34N 34°09' E 134°55'213.7
2017-Oct-14 18:27N 34°10' E 134°57'613.3
2017-Oct-14 18:00N 34°12' E 135°03'4 8.8
2017-Oct-14 17:30N 34°13' E 135°09'0 0.0
2017-Oct-14 17:00N 34°13' E 135°09'0 0.0
2017-Oct-14 16:30N 34°13' E 135°09'0 0.0
2017-Oct-14 16:01N 34°13' E 135°09'0 0.0
2017-Oct-14 15:30N 34°13' E 135°09'1 1.5
2017-Oct-14 15:00N 34°13' E 135°08'713.3
2017-Oct-14 14:29N 34°11' E 134°60'3 0.7
2017-Oct-14 10:57N 34°10' E 134°57'714.9
2017-Oct-14 10:31N 34°12' E 135°04'4 7.1
2017-Oct-14 10:00N 34°13' E 135°09'0 0.0
2017-Oct-14 09:31N 34°13' E 135°09'714.0
2017-Oct-14 09:00N 34°11' E 135°01'3 0.8
2017-Oct-14 05:22N 34°10' E 134°57'514.5
2017-Oct-14 05:00N 34°12' E 135°03'5 9.2
2017-Oct-14 04:30N 34°13' E 135°09'0 0.1
2017-Oct-14 04:01N 34°13' E 135°09'714.7
2017-Oct-14 03:30N 34°11' E 134°60'4 1.4
2017-Oct-14 00:17N 34°09' E 134°55'516.5
2017-Oct-14 00:00N 34°11' E 135°00'714.7
2017-Oct-13 23:30N 34°13' E 135°09'0 0.0
2017-Oct-13 23:00N 34°13' E 135°09'3 5.7
2017-Oct-13 22:30N 34°12' E 135°05'9 2.3
2017-Oct-13 18:33N 34°09' E 134°55'114.4
2017-Oct-13 18:30N 34°09' E 134°56'713.6
2017-Oct-13 18:00N 34°12' E 135°04'4 8.6
2017-Oct-13 17:30N 34°13' E 135°09'0 0.0
2017-Oct-13 17:00N 34°13' E 135°09'0 0.0
2017-Oct-13 16:30N 34°13' E 135°09'0 0.0
2017-Oct-13 16:00N 34°13' E 135°09'0 0.0
2017-Oct-13 15:31N 34°13' E 135°09'0 0.6
2017-Oct-13 15:00N 34°13' E 135°08'713.9
2017-Oct-13 14:30N 34°11' E 135°00'2 0.6
2017-Oct-13 10:55N 34°11' E 134°58'614.7
2017-Oct-13 10:30N 34°12' E 135°05'3 6.5
2017-Oct-13 10:01N 34°13' E 135°09'0 0.6
2017-Oct-13 09:31N 34°13' E 135°08'914.8
2017-Oct-13 08:54N 34°10' E 134°58'1 0.3
2017-Oct-13 05:28N 34°09' E 134°57'614.1
2017-Oct-13 05:01N 34°11' E 135°04'4 8.1
2017-Oct-13 04:30N 34°13' E 135°09'0 0.0
2017-Oct-13 04:01N 34°13' E 135°09'713.6
2017-Oct-13 03:30N 34°11' E 135°01'5 1.4
2017-Oct-13 00:16N 34°09' E 134°56'416.3
2017-Oct-13 00:01N 34°11' E 135°00'714.5
2017-Oct-12 23:30N 34°13' E 135°09'0 0.0
2017-Oct-12 23:00N 34°13' E 135°09'3 5.5
2017-Oct-12 22:31N 34°12' E 135°05'815.0
2017-Oct-12 22:00N 34°09' E 134°57'2 0.6
2017-Oct-12 18:34N 34°09' E 134°55'114.5
2017-Oct-12 18:28N 34°09' E 134°56'714.2
2017-Oct-12 18:00N 34°12' E 135°03'4 8.9
2017-Oct-12 17:30N 34°13' E 135°09'0 0.0
2017-Oct-12 17:00N 34°13' E 135°09'0 0.0
2017-Oct-12 16:30N 34°13' E 135°09'0 0.0
2017-Oct-12 16:00N 34°13' E 135°09'0 0.0
2017-Oct-12 15:30N 34°13' E 135°09'0 0.1
2017-Oct-12 15:01N 34°13' E 135°09'612.4
2017-Oct-12 14:30N 34°11' E 135°02'3 0.8
2017-Oct-12 10:54N 34°11' E 134°58'614.7
2017-Oct-12 10:31N 34°12' E 135°05'3 6.4
2017-Oct-12 10:00N 34°13' E 135°09'0 0.1
2017-Oct-12 09:31N 34°13' E 135°09'714.0
2017-Oct-12 09:00N 34°11' E 135°01'  

Dump ship's entire track history